Hydro, Oklahoma
Current Conditions -  °F | °C
As of 11:15 PM on Friday 28 Nov 2014 (Local Time) from KOJA Reporting Station
Clear Clear  
Wind Chill: 55°   Ceiling: Unl
Heat Index: 55°   Visibility: 10mi
Dew Point: 39°   Wind: 15mph
Humidity: 54%   Direction: 190°S
Pressure: 29.79"   Gusts: NA
Location:  35.55°N, 98.58°W
Report Text: KOJA 290515Z AUTO 19013KT 10SM CLR 13/04 A2979 RMK AO2
Loading
Personal Weather Stations






























Interactive Weather Map New forecast layout! Learn more

10-Day Weather Forecast

Advertisements
Track Severe Weather on mobile